createdAt,value
2018-08-30T00:00:33.310Z,17.10
2018-08-30T00:03:02.768Z,17.00
2018-08-30T00:05:32.664Z,16.80
2018-08-30T00:08:03.117Z,16.80
2018-08-30T00:10:32.642Z,16.80
2018-08-30T00:13:03.043Z,16.80
2018-08-30T00:15:32.475Z,16.80
2018-08-30T00:18:02.851Z,16.70
2018-08-30T00:20:32.284Z,16.70
2018-08-30T00:23:02.306Z,16.60
2018-08-30T00:25:31.961Z,16.70
2018-08-30T00:28:01.454Z,16.60
2018-08-30T00:30:35.243Z,16.60
2018-08-30T00:33:09.349Z,16.60
2018-08-30T00:35:42.868Z,16.50
2018-08-30T00:38:16.006Z,16.50
2018-08-30T00:40:50.437Z,16.50
2018-08-30T00:43:24.328Z,16.50
2018-08-30T00:45:58.093Z,16.50
2018-08-30T00:48:32.133Z,16.50
2018-08-30T00:51:05.912Z,16.50
2018-08-30T00:53:38.929Z,16.50
2018-08-30T00:56:11.316Z,16.50
2018-08-30T00:58:44.748Z,16.50
2018-08-30T01:01:18.563Z,16.50
2018-08-30T01:03:51.322Z,16.50
2018-08-30T01:06:26.210Z,16.40
2018-08-30T01:09:00.918Z,16.40
2018-08-30T01:11:34.614Z,16.40
2018-08-30T01:14:08.537Z,16.40
2018-08-30T01:16:40.973Z,16.40
2018-08-30T01:19:14.752Z,16.40
2018-08-30T01:21:47.975Z,16.40
2018-08-30T01:24:22.116Z,16.40
2018-08-30T01:26:56.416Z,16.40
2018-08-30T01:29:30.491Z,16.30
2018-08-30T01:32:04.397Z,16.30
2018-08-30T01:34:37.758Z,16.30
2018-08-30T01:37:10.879Z,16.30
2018-08-30T01:39:43.834Z,16.20
2018-08-30T01:42:18.090Z,16.20
2018-08-30T01:44:58.031Z,16.20
2018-08-30T01:47:30.466Z,16.10
2018-08-30T01:50:03.902Z,16.10
2018-08-30T01:52:37.391Z,16.10
2018-08-30T01:55:10.841Z,16.10
2018-08-30T01:57:43.278Z,16.10
2018-08-30T02:00:17.964Z,16.10
2018-08-30T02:02:51.840Z,16.10
2018-08-30T02:05:24.859Z,16.00
2018-08-30T02:07:57.858Z,16.10
2018-08-30T02:10:32.124Z,16.10
2018-08-30T02:13:05.683Z,16.00
2018-08-30T02:15:39.328Z,16.00
2018-08-30T02:18:12.787Z,16.10
2018-08-30T02:20:45.561Z,16.10
2018-08-30T02:23:19.305Z,16.00
2018-08-30T02:25:53.424Z,16.00
2018-08-30T02:28:26.431Z,16.00
2018-08-30T02:31:00.432Z,16.00
2018-08-30T02:33:34.435Z,16.10
2018-08-30T02:36:08.017Z,16.00
2018-08-30T02:38:41.524Z,16.00
2018-08-30T02:41:15.780Z,16.10
2018-08-30T02:43:49.642Z,16.00
2018-08-30T02:46:23.809Z,16.00
2018-08-30T02:48:57.244Z,16.00
2018-08-30T02:51:31.614Z,16.00
2018-08-30T02:54:04.571Z,16.00
2018-08-30T02:56:37.576Z,15.90
2018-08-30T02:59:11.965Z,16.00
2018-08-30T03:01:45.402Z,16.00
2018-08-30T03:04:19.465Z,16.10
2018-08-30T03:06:52.887Z,16.10
2018-08-30T03:09:26.199Z,16.00
2018-08-30T03:12:00.142Z,16.00
2018-08-30T03:14:29.699Z,16.00
2018-08-30T03:16:59.118Z,15.90
2018-08-30T03:19:28.594Z,15.90
2018-08-30T03:21:58.045Z,16.00
2018-08-30T03:24:27.524Z,16.00
2018-08-30T03:26:57.156Z,15.90
2018-08-30T03:29:26.618Z,15.90
2018-08-30T03:31:56.064Z,15.90
2018-08-30T03:34:25.925Z,15.90
2018-08-30T03:36:55.419Z,15.90
2018-08-30T03:39:24.883Z,15.80
2018-08-30T03:41:54.343Z,15.80
2018-08-30T03:44:23.770Z,15.80
2018-08-30T03:46:53.426Z,15.80
2018-08-30T03:49:22.848Z,15.70
2018-08-30T03:51:52.294Z,15.70
2018-08-30T03:54:21.775Z,15.70
2018-08-30T03:56:51.217Z,15.60
2018-08-30T03:59:20.721Z,15.70
2018-08-30T04:01:50.194Z,15.70
2018-08-30T04:04:19.736Z,15.70
2018-08-30T04:06:49.177Z,15.70
2018-08-30T04:09:18.555Z,15.70
2018-08-30T04:11:48.421Z,15.70
2018-08-30T04:14:17.868Z,15.70
2018-08-30T04:16:47.383Z,15.70
2018-08-30T04:19:16.844Z,15.70
2018-08-30T04:21:46.295Z,15.70
2018-08-30T04:24:15.750Z,15.70
2018-08-30T04:26:45.239Z,15.70
2018-08-30T04:29:14.666Z,15.70
2018-08-30T04:31:44.101Z,15.70
2018-08-30T04:34:13.573Z,15.70
2018-08-30T04:36:42.997Z,15.70
2018-08-30T04:39:12.476Z,15.70
2018-08-30T04:41:41.876Z,15.70
2018-08-30T04:44:11.389Z,15.70
2018-08-30T04:46:40.831Z,15.70
2018-08-30T04:49:10.260Z,15.70
2018-08-30T04:51:39.710Z,15.80
2018-08-30T04:54:09.243Z,15.80
2018-08-30T04:56:38.660Z,15.70
2018-08-30T04:59:08.123Z,15.70
2018-08-30T05:01:37.613Z,15.70
2018-08-30T05:04:07.158Z,15.70
2018-08-30T05:06:37.145Z,15.70
2018-08-30T05:09:09.415Z,15.70
2018-08-30T05:11:38.993Z,15.70
2018-08-30T05:14:10.318Z,15.70
2018-08-30T05:16:39.876Z,15.70
2018-08-30T05:19:09.299Z,15.70
2018-08-30T05:21:38.730Z,15.70
2018-08-30T05:24:08.263Z,15.70
2018-08-30T05:26:37.695Z,15.60
2018-08-30T05:29:11.584Z,15.60
2018-08-30T05:31:42.038Z,15.60
2018-08-30T05:34:14.759Z,15.60
2018-08-30T06:03:34.316Z,15.70
2018-08-30T06:06:03.981Z,15.70
2018-08-30T06:08:33.709Z,15.70
2018-08-30T06:11:03.522Z,15.70
2018-08-30T06:13:33.260Z,15.80
2018-08-30T06:16:02.927Z,15.70
2018-08-30T06:18:33.270Z,15.80
2018-08-30T06:21:03.034Z,15.80
2018-08-30T06:23:32.717Z,15.80
2018-08-30T06:26:02.466Z,15.80
2018-08-30T06:28:32.209Z,15.80
2018-08-30T06:31:01.875Z,15.90
2018-08-30T06:33:31.490Z,16.00
2018-08-30T06:36:01.165Z,16.00
2018-08-30T06:38:30.852Z,16.00
2018-08-30T06:41:00.506Z,16.10
2018-08-30T06:43:30.180Z,16.10
2018-08-30T06:45:59.791Z,16.10
2018-08-30T06:48:29.413Z,16.10
2018-08-30T06:50:58.902Z,16.20
2018-08-30T06:53:28.477Z,16.30
2018-08-30T06:55:58.049Z,16.30
2018-08-30T06:58:27.881Z,16.40
2018-08-30T07:00:57.477Z,16.40
2018-08-30T07:03:27.116Z,16.50
2018-08-30T07:05:56.684Z,16.50
2018-08-30T07:08:26.286Z,16.50
2018-08-30T07:10:55.862Z,16.50
2018-08-30T07:13:25.436Z,16.60
2018-08-30T07:15:55.110Z,16.70
2018-08-30T07:18:24.778Z,16.70
2018-08-30T07:20:54.413Z,16.70
2018-08-30T07:23:23.999Z,16.70
2018-08-30T07:25:53.618Z,16.70
2018-08-30T07:28:23.213Z,16.70
2018-08-30T07:30:53.179Z,16.60
2018-08-30T07:33:24.306Z,16.60
2018-08-30T07:35:53.861Z,16.60
2018-08-30T07:38:23.386Z,16.70
2018-08-30T07:40:52.985Z,16.80
2018-08-30T07:43:22.694Z,16.90
2018-08-30T07:45:52.335Z,17.20
2018-08-30T07:48:21.994Z,17.40
2018-08-30T07:50:51.556Z,17.60
2018-08-30T07:53:22.250Z,17.70
2018-08-30T07:55:51.803Z,17.90
2018-08-30T07:58:21.331Z,17.90
2018-08-30T08:00:50.933Z,18.00
2018-08-30T08:03:20.971Z,17.90
2018-08-30T08:05:50.544Z,17.80
2018-08-30T08:08:20.085Z,17.90
2018-08-30T08:10:49.649Z,18.00
2018-08-30T08:13:19.817Z,18.30
2018-08-30T08:15:49.465Z,18.50
2018-08-30T08:18:18.976Z,18.90
2018-08-30T08:20:54.801Z,18.90
2018-08-30T08:23:24.415Z,19.00
2018-08-30T08:25:54.064Z,18.90
2018-08-30T08:28:23.657Z,19.10
2018-08-30T08:30:53.697Z,19.10
2018-08-30T08:33:23.510Z,19.00
2018-08-30T08:35:53.079Z,18.80
2018-08-30T08:38:22.678Z,18.70
2018-08-30T08:40:52.360Z,18.80
2018-08-30T08:43:22.021Z,18.90
2018-08-30T08:45:51.754Z,18.90
2018-08-30T08:48:21.374Z,19.00
2018-08-30T08:50:51.228Z,19.10
2018-08-30T08:53:21.212Z,19.30
2018-08-30T08:55:51.070Z,19.30
2018-08-30T08:58:20.730Z,19.10
2018-08-30T09:00:50.332Z,19.00
2018-08-30T09:03:19.913Z,18.90
2018-08-30T09:05:49.760Z,18.90
2018-08-30T09:08:19.496Z,19.10
2018-08-30T09:10:49.300Z,19.50
2018-08-30T09:13:19.250Z,19.80
2018-08-30T09:15:48.791Z,19.80
2018-08-30T09:18:18.577Z,19.80
2018-08-30T09:20:48.584Z,20.10
2018-08-30T09:23:18.442Z,20.10
2018-08-30T09:25:48.125Z,20.00
2018-08-30T09:28:17.995Z,19.80
2018-08-30T09:30:47.828Z,19.80
2018-08-30T09:33:17.564Z,19.70
2018-08-30T09:35:47.585Z,20.00
2018-08-30T09:38:17.380Z,20.10
2018-08-30T09:40:47.061Z,19.90
2018-08-30T09:43:17.069Z,19.90
2018-08-30T09:45:46.757Z,19.80
2018-08-30T09:48:16.532Z,19.80
2018-08-30T09:50:46.138Z,20.00
2018-08-30T09:53:15.823Z,20.10
2018-08-30T09:55:45.612Z,20.10
2018-08-30T09:58:15.521Z,20.20
2018-08-30T10:00:50.427Z,20.20
2018-08-30T10:03:20.195Z,20.20
2018-08-30T10:05:49.740Z,20.20
2018-08-30T10:08:19.579Z,20.30
2018-08-30T10:10:49.464Z,20.70
2018-08-30T10:13:19.053Z,21.00
2018-08-30T10:15:48.799Z,21.30
2018-08-30T10:18:18.786Z,21.40
2018-08-30T10:20:48.706Z,21.60
2018-08-30T10:23:18.453Z,21.90
2018-08-30T10:25:48.167Z,21.90
2018-08-30T10:28:18.213Z,21.90
2018-08-30T10:30:47.786Z,21.60
2018-08-30T10:33:17.476Z,21.60
2018-08-30T10:35:47.473Z,21.80
2018-08-30T10:38:18.173Z,22.00
2018-08-30T10:40:48.295Z,21.90
2018-08-30T10:43:19.771Z,21.80
2018-08-30T10:45:50.812Z,21.70
2018-08-30T10:48:20.396Z,21.60
2018-08-30T10:50:50.036Z,21.60
2018-08-30T10:53:20.522Z,21.50
2018-08-30T10:55:50.395Z,21.30
2018-08-30T10:58:20.118Z,21.10
2018-08-30T11:00:49.912Z,20.90
2018-08-30T11:03:20.235Z,20.80
2018-08-30T11:05:51.194Z,20.70
2018-08-30T11:08:20.944Z,20.80
2018-08-30T11:10:50.529Z,21.10
2018-08-30T11:13:20.603Z,21.50
2018-08-30T11:15:50.141Z,21.60
2018-08-30T11:18:19.813Z,21.50
2018-08-30T11:20:49.484Z,21.50
2018-08-30T11:23:19.773Z,21.90
2018-08-30T11:25:49.525Z,22.20
2018-08-30T11:28:19.406Z,22.50
2018-08-30T11:30:49.106Z,22.90
2018-08-30T11:33:19.865Z,23.00
2018-08-30T11:35:49.636Z,22.90
2018-08-30T11:38:19.415Z,22.60
2018-08-30T11:40:48.979Z,22.60
2018-08-30T11:43:18.642Z,22.70
2018-08-30T11:45:48.380Z,22.50
2018-08-30T11:48:18.022Z,22.70
2018-08-30T11:50:47.683Z,22.70
2018-08-30T11:53:17.448Z,22.80
2018-08-30T11:55:50.834Z,23.00
2018-08-30T11:58:20.498Z,22.90
2018-08-30T12:00:57.766Z,22.70
2018-08-30T12:03:28.072Z,22.60
2018-08-30T12:06:14.166Z,22.00
2018-08-30T12:08:55.161Z,20.90
2018-08-30T12:11:33.456Z,20.00
2018-08-30T12:14:07.253Z,19.40
2018-08-30T12:16:41.082Z,19.00
2018-08-30T12:19:10.737Z,18.80
2018-08-30T12:21:40.757Z,18.90
2018-08-30T12:24:10.363Z,18.90
2018-08-30T12:26:40.116Z,19.10
2018-08-30T12:29:09.922Z,19.30
2018-08-30T12:31:39.601Z,19.50
2018-08-30T12:34:09.468Z,19.40
2018-08-30T12:36:39.400Z,19.30
2018-08-30T12:39:15.838Z,19.20
2018-08-30T12:41:45.691Z,19.40
2018-08-30T12:44:15.619Z,19.80
2018-08-30T12:46:45.675Z,20.40
2018-08-30T12:49:15.480Z,20.70
2018-08-30T12:51:45.583Z,20.80
2018-08-30T12:54:15.922Z,21.10
2018-08-30T12:56:45.655Z,21.40
2018-08-30T12:59:18.717Z,21.40
2018-08-30T13:01:48.776Z,21.20
2018-08-30T13:04:18.477Z,20.60
2018-08-30T13:06:53.385Z,20.00
2018-08-30T13:09:23.700Z,19.10
2018-08-30T13:11:53.472Z,18.60
2018-08-30T13:14:23.247Z,18.20
2018-08-30T13:16:52.884Z,18.00
2018-08-30T13:19:22.895Z,17.90
2018-08-30T13:21:52.669Z,18.00
2018-08-30T13:24:22.272Z,18.10
2018-08-30T13:26:52.082Z,18.20
2018-08-30T13:29:21.782Z,18.40
2018-08-30T13:31:51.733Z,18.40
2018-08-30T13:34:21.651Z,18.40
2018-08-30T13:36:51.347Z,18.30
2018-08-30T13:39:21.082Z,18.30
2018-08-30T13:41:52.021Z,18.20
2018-08-30T13:44:22.089Z,18.20
2018-08-30T13:46:51.650Z,18.20
2018-08-30T13:49:21.945Z,18.30
2018-08-30T13:51:53.177Z,18.30
2018-08-30T13:54:22.917Z,18.30
2018-08-30T13:56:52.744Z,18.20
2018-08-30T13:59:22.683Z,18.20
2018-08-30T14:01:52.394Z,18.20
2018-08-30T14:04:23.523Z,18.00
2018-08-30T14:06:58.465Z,18.10
2018-08-30T14:09:28.788Z,18.10
2018-08-30T14:11:59.465Z,18.30
2018-08-30T14:14:33.953Z,18.40
2018-08-30T14:17:04.198Z,18.40
2018-08-30T14:19:33.849Z,18.50
2018-08-30T14:22:03.560Z,18.70
2018-08-30T14:24:34.526Z,18.80
2018-08-30T14:27:05.595Z,18.90
2018-08-30T14:29:37.169Z,18.90
2018-08-30T14:32:06.918Z,18.90
2018-08-30T14:34:37.644Z,18.70
2018-08-30T14:37:07.638Z,18.60
2018-08-30T14:39:38.407Z,18.50
2018-08-30T14:42:09.124Z,18.50
2018-08-30T14:44:39.308Z,18.50
2018-08-30T14:47:09.411Z,18.60
2018-08-30T14:49:39.216Z,18.60
2018-08-30T14:52:09.193Z,18.40
2018-08-30T14:54:39.074Z,18.30
2018-08-30T14:57:10.047Z,18.30
2018-08-30T14:59:39.995Z,18.40
2018-08-30T15:02:09.770Z,18.40
2018-08-30T15:04:39.726Z,18.40
2018-08-30T15:07:09.398Z,18.70
2018-08-30T15:09:39.065Z,18.70
2018-08-30T15:12:09.877Z,18.70
2018-08-30T15:14:40.230Z,18.80
2018-08-30T15:17:09.829Z,19.00
2018-08-30T15:19:40.175Z,19.00
2018-08-30T15:22:09.932Z,19.10
2018-08-30T15:24:39.477Z,19.20
2018-08-30T15:27:09.138Z,19.40
2018-08-30T15:29:39.791Z,19.40
2018-08-30T15:32:09.440Z,19.40
2018-08-30T15:34:40.062Z,19.50
2018-08-30T15:37:09.602Z,19.20
2018-08-30T15:39:39.207Z,19.10
2018-08-30T15:42:08.855Z,19.00
2018-08-30T15:44:38.860Z,18.90
2018-08-30T15:47:08.622Z,18.80
2018-08-30T15:49:38.246Z,18.80
2018-08-30T15:52:08.004Z,18.90
2018-08-30T15:54:37.572Z,18.90
2018-08-30T15:57:07.152Z,19.00
2018-08-30T15:59:36.763Z,19.20
2018-08-30T16:02:06.530Z,19.00
2018-08-30T16:04:37.342Z,18.90
2018-08-30T16:07:07.387Z,18.90
2018-08-30T16:09:37.124Z,18.80
2018-08-30T16:12:07.154Z,18.90
2018-08-30T16:14:38.024Z,18.90
2018-08-30T16:17:07.802Z,18.90
2018-08-30T16:19:37.513Z,18.80
2018-08-30T16:22:07.208Z,18.80
2018-08-30T16:24:39.716Z,18.70
2018-08-30T16:27:09.604Z,18.60
2018-08-30T16:29:39.594Z,18.60
2018-08-30T16:32:19.147Z,18.50
2018-08-30T16:34:48.880Z,18.50
2018-08-30T16:37:18.925Z,18.40
2018-08-30T16:39:48.877Z,18.40
2018-08-30T16:42:18.935Z,18.30
2018-08-30T16:44:48.716Z,18.30
2018-08-30T16:47:18.973Z,18.30
2018-08-30T16:49:54.402Z,18.30
2018-08-30T16:52:24.448Z,18.30
2018-08-30T16:54:54.231Z,18.30
2018-08-30T16:57:24.505Z,18.20
2018-08-30T17:00:01.905Z,18.20
2018-08-30T17:02:31.707Z,18.20
2018-08-30T17:05:01.786Z,18.20
2018-08-30T17:07:32.793Z,18.20
2018-08-30T17:10:02.868Z,18.20
2018-08-30T17:12:32.683Z,18.10
2018-08-30T17:15:02.776Z,18.10
2018-08-30T17:17:33.156Z,18.00
2018-08-30T17:20:02.916Z,18.00
2018-08-30T17:22:32.662Z,18.00
2018-08-30T17:25:02.405Z,17.90
2018-08-30T17:27:32.415Z,17.90
2018-08-30T17:30:02.111Z,17.80
2018-08-30T17:32:31.983Z,17.80
2018-08-30T17:35:01.658Z,17.80
2018-08-30T17:37:31.256Z,17.70
2018-08-30T17:40:01.046Z,17.70
2018-08-30T17:42:30.878Z,17.70
2018-08-30T17:45:00.579Z,17.60
2018-08-30T17:47:30.228Z,17.60
2018-08-30T17:50:00.059Z,17.60
2018-08-30T17:52:29.748Z,17.60
2018-08-30T17:54:59.496Z,17.60
2018-08-30T17:57:45.386Z,17.50
2018-08-30T18:00:15.422Z,17.50
2018-08-30T18:02:46.067Z,17.40
2018-08-30T18:05:16.204Z,17.40
2018-08-30T18:07:46.059Z,17.40
2018-08-30T18:10:15.809Z,17.30
2018-08-30T18:12:46.003Z,17.30
2018-08-30T18:15:16.513Z,17.20
2018-08-30T18:17:46.544Z,17.20
2018-08-30T18:20:16.201Z,17.10
2018-08-30T18:22:45.911Z,17.20
2018-08-30T18:25:15.694Z,17.10
2018-08-30T18:27:45.456Z,17.10
2018-08-30T18:30:15.779Z,16.90
2018-08-30T18:32:45.657Z,16.80
2018-08-30T18:35:16.139Z,16.70
2018-08-30T18:37:47.935Z,16.70
2018-08-30T18:40:17.659Z,16.60
2018-08-30T18:42:47.431Z,16.50
2018-08-30T18:45:17.439Z,16.50
2018-08-30T18:47:47.624Z,16.40
2018-08-30T18:50:17.403Z,16.40
2018-08-30T18:52:47.690Z,16.30
2018-08-30T18:55:18.061Z,16.30
2018-08-30T18:57:48.029Z,16.30
2018-08-30T19:00:17.918Z,16.30
2018-08-30T19:02:47.566Z,16.30
2018-08-30T19:05:17.604Z,16.20
2018-08-30T19:07:48.189Z,16.20
2018-08-30T19:10:18.026Z,16.20
2018-08-30T19:12:48.258Z,16.20
2018-08-30T19:15:23.363Z,16.10
2018-08-30T19:17:58.224Z,16.10
2018-08-30T19:20:28.547Z,16.10
2018-08-30T19:22:58.831Z,16.00
2018-08-30T19:25:29.976Z,15.90
2018-08-30T19:27:59.573Z,15.80
2018-08-30T19:30:34.883Z,15.70
2018-08-30T19:33:07.941Z,15.70
2018-08-30T19:35:45.874Z,15.60
2018-08-30T19:38:19.038Z,15.60
2018-08-30T19:40:57.015Z,15.50
2018-08-30T19:46:42.299Z,15.30
2018-08-30T19:49:27.711Z,15.20
2018-08-30T19:52:02.136Z,15.20
2018-08-30T19:54:41.484Z,15.10
2018-08-30T19:57:19.054Z,15.00
2018-08-30T19:59:48.885Z,14.90
2018-08-30T20:02:22.842Z,14.80
2018-08-30T20:04:56.707Z,14.70
2018-08-30T20:07:30.348Z,14.60
2018-08-30T20:10:03.464Z,14.50
2018-08-30T20:12:40.490Z,14.40
2018-08-30T20:15:18.920Z,14.30
2018-08-30T20:17:56.404Z,14.20
2018-08-30T20:20:26.970Z,14.10
2018-08-30T20:22:57.567Z,14.00
2018-08-30T20:25:27.814Z,13.90
2018-08-30T20:27:58.162Z,13.80
2018-08-30T20:30:28.175Z,13.80
2018-08-30T20:32:58.437Z,13.70
2018-08-30T20:35:29.942Z,13.60
2018-08-30T20:38:01.178Z,13.60
2018-08-30T20:40:31.151Z,13.60
2018-08-30T20:43:00.740Z,13.50
2018-08-30T20:45:34.211Z,13.50
2018-08-30T20:48:04.836Z,13.40
2018-08-30T20:50:35.549Z,13.30
2018-08-30T20:53:05.326Z,13.30
2018-08-30T20:55:35.595Z,13.20
2018-08-30T20:58:05.644Z,13.20
2018-08-30T21:00:35.459Z,13.10
2018-08-30T21:03:05.254Z,13.10
2018-08-30T21:05:35.061Z,13.00
2018-08-30T21:08:04.837Z,13.00
2018-08-30T21:10:34.642Z,13.00
2018-08-30T21:13:04.374Z,12.90
2018-08-30T21:15:35.063Z,12.90
2018-08-30T21:18:04.719Z,12.80
2018-08-30T21:20:34.935Z,12.80
2018-08-30T21:23:05.041Z,12.70
2018-08-30T21:25:34.780Z,12.70
2018-08-30T21:28:06.093Z,12.70
2018-08-30T21:30:37.460Z,12.60
2018-08-30T21:33:07.910Z,12.60
2018-08-30T21:35:37.984Z,12.60
2018-08-30T21:38:07.934Z,12.50
2018-08-30T21:40:37.740Z,12.50
2018-08-30T21:43:08.520Z,12.50
2018-08-30T21:45:38.368Z,12.40
2018-08-30T21:48:08.301Z,12.40
2018-08-30T21:50:38.808Z,12.40
2018-08-30T21:53:09.480Z,12.40
2018-08-30T21:55:39.163Z,12.30
2018-08-30T21:58:09.158Z,12.30
2018-08-30T22:00:39.812Z,12.20
2018-08-30T22:03:10.180Z,12.20
2018-08-30T22:05:39.937Z,12.20
2018-08-30T22:08:11.143Z,12.10
2018-08-30T22:10:40.933Z,12.10
2018-08-30T22:13:10.625Z,12.00
2018-08-30T22:15:40.341Z,12.00
2018-08-30T22:18:09.958Z,12.00
2018-08-30T22:20:39.614Z,11.90
2018-08-30T22:23:09.345Z,11.90
2018-08-30T22:25:39.054Z,11.90
2018-08-30T22:28:08.747Z,11.90
2018-08-30T22:30:38.459Z,11.80
2018-08-30T22:33:08.174Z,11.80
2018-08-30T22:35:37.772Z,11.80
2018-08-30T22:38:07.427Z,11.80
2018-08-30T22:40:37.070Z,11.80
2018-08-30T22:43:06.639Z,11.80
2018-08-30T22:45:36.424Z,11.70
2018-08-30T22:48:06.369Z,11.70
2018-08-30T22:50:36.066Z,11.70
2018-08-30T22:53:05.827Z,11.60
2018-08-30T22:55:35.774Z,11.60
2018-08-30T22:58:06.598Z,11.60
2018-08-30T23:00:38.137Z,11.60
2018-08-30T23:03:08.708Z,11.60
2018-08-30T23:05:39.871Z,11.50
2018-08-30T23:08:10.606Z,11.50
2018-08-30T23:10:43.902Z,11.50
2018-08-30T23:13:18.445Z,11.40
2018-08-30T23:15:53.087Z,11.40
2018-08-30T23:18:27.631Z,11.40
2018-08-30T23:20:57.372Z,11.30
2018-08-30T23:23:28.790Z,11.40
2018-08-30T23:26:05.748Z,11.30
2018-08-30T23:28:40.838Z,11.30
2018-08-30T23:31:12.492Z,11.30
2018-08-30T23:33:45.159Z,11.30
2018-08-30T23:36:14.856Z,11.30
2018-08-30T23:38:51.657Z,11.30
2018-08-30T23:41:21.366Z,11.20
2018-08-30T23:43:51.077Z,11.20
2018-08-30T23:46:20.946Z,11.20
2018-08-30T23:48:50.801Z,11.20
2018-08-30T23:51:20.570Z,11.20
2018-08-30T23:53:50.275Z,11.20
2018-08-30T23:56:20.018Z,11.10
2018-08-30T23:59:00.704Z,11.10
